createdAt,value
2018-02-12T00:00:50.763Z,7.67
2018-02-12T00:05:45.062Z,6.93
2018-02-12T00:10:39.394Z,6.77
2018-02-12T00:15:33.644Z,4.87
2018-02-12T00:20:28.713Z,5.77
2018-02-12T00:25:23.013Z,5.97
2018-02-12T00:30:17.277Z,7.10
2018-02-12T00:35:12.315Z,8.20
2018-02-12T00:40:06.615Z,5.20
2018-02-12T00:45:00.878Z,7.13
2018-02-12T00:49:56.075Z,5.13
2018-02-12T00:54:50.374Z,5.67
2018-02-12T00:59:44.850Z,5.07
2018-02-12T01:04:39.273Z,6.10
2018-02-12T01:09:33.769Z,6.53
2018-02-12T01:14:28.029Z,7.47
2018-02-12T01:19:23.082Z,9.03
2018-02-12T01:24:17.355Z,7.20
2018-02-12T01:29:11.646Z,8.20
2018-02-12T01:34:06.799Z,8.40
2018-02-12T01:39:01.146Z,9.73
2018-02-12T01:43:55.606Z,9.43
2018-02-12T01:48:49.859Z,10.90
2018-02-12T01:53:44.916Z,9.23
2018-02-12T01:58:39.209Z,7.53
2018-02-12T02:03:33.457Z,8.50
2018-02-12T02:08:28.510Z,9.07
2018-02-12T02:13:23.570Z,13.10
2018-02-12T02:18:17.838Z,8.93
2018-02-12T02:23:12.151Z,11.87
2018-02-12T02:28:06.425Z,10.67
2018-02-12T02:33:01.468Z,11.57
2018-02-12T02:37:56.086Z,8.97
2018-02-12T02:42:50.354Z,10.00
2018-02-12T02:47:45.648Z,10.70
2018-02-12T02:52:40.942Z,11.90
2018-02-12T02:57:35.209Z,9.90
2018-02-12T03:02:29.489Z,15.03
2018-02-12T03:07:24.785Z,12.87
2018-02-12T03:12:19.054Z,11.77
2018-02-12T03:17:13.503Z,14.40
2018-02-12T03:22:09.866Z,14.50
2018-02-12T03:27:04.918Z,13.93
2018-02-12T03:31:59.261Z,15.87
2018-02-12T03:36:53.565Z,15.30
2018-02-12T03:41:47.841Z,11.90
2018-02-12T03:46:41.935Z,13.77
2018-02-12T03:51:36.214Z,12.23
2018-02-12T03:56:30.608Z,10.97
2018-02-12T04:01:24.879Z,15.17
2018-02-12T04:06:19.284Z,13.80
2018-02-12T04:20:36.818Z,16.37
2018-02-12T04:25:31.100Z,11.87
2018-02-12T04:30:26.181Z,12.37
2018-02-12T04:35:20.472Z,13.17
2018-02-12T04:40:14.752Z,11.67
2018-02-12T04:45:09.047Z,12.17
2018-02-12T04:50:03.526Z,10.90
2018-02-12T04:54:58.728Z,10.50
2018-02-12T04:59:53.018Z,10.03
2018-02-12T05:04:47.307Z,9.47
2018-02-12T05:09:41.794Z,10.50
2018-02-12T05:14:36.060Z,11.70
2018-02-12T05:19:31.110Z,11.70
2018-02-12T05:24:25.418Z,10.17
2018-02-12T05:29:19.684Z,15.07
2018-02-12T05:34:13.979Z,11.37
2018-02-12T05:39:09.035Z,10.47
2018-02-12T05:44:03.580Z,9.27
2018-02-12T05:48:57.856Z,11.33
2018-02-12T05:53:52.158Z,11.10
2018-02-12T05:58:46.423Z,7.83
2018-02-12T06:03:40.704Z,8.80
2018-02-12T06:08:35.744Z,9.97
2018-02-12T06:13:30.049Z,12.03
2018-02-12T06:18:24.498Z,14.83
2018-02-12T06:23:19.566Z,15.57
2018-02-12T06:28:13.874Z,11.37
2018-02-12T06:33:08.165Z,12.50
2018-02-12T06:38:02.465Z,13.97
2018-02-12T06:42:56.813Z,11.20
2018-02-12T06:47:51.099Z,14.57
2018-02-12T06:52:45.380Z,12.73
2018-02-12T06:57:39.689Z,15.97
2018-02-12T07:02:33.983Z,11.77
2018-02-12T07:07:28.367Z,16.73
2018-02-12T07:12:22.679Z,11.60
2018-02-12T07:17:17.102Z,15.23
2018-02-12T07:22:11.531Z,13.53
2018-02-12T07:27:06.628Z,13.63
2018-02-12T07:32:00.735Z,12.57
2018-02-12T07:36:55.408Z,14.63
2018-02-12T07:41:49.808Z,11.00
2018-02-12T07:46:44.112Z,11.00
2018-02-12T07:51:38.444Z,9.27
2018-02-12T07:56:32.762Z,12.23
2018-02-12T08:01:27.850Z,10.73
2018-02-12T08:06:22.179Z,14.67
2018-02-12T08:11:16.451Z,13.33
2018-02-12T08:16:10.757Z,12.57
2018-02-12T08:21:05.038Z,13.10
2018-02-12T08:25:59.410Z,9.97
2018-02-12T08:30:54.456Z,13.33
2018-02-12T08:35:48.917Z,13.17
2018-02-12T08:40:43.228Z,13.37
2018-02-12T08:45:38.281Z,11.00
2018-02-12T08:50:32.594Z,10.70
2018-02-12T08:55:26.840Z,8.17
2018-02-12T09:00:21.794Z,10.80
2018-02-12T09:05:16.408Z,9.37
2018-02-12T09:10:10.715Z,8.93
2018-02-12T09:15:05.140Z,11.90
2018-02-12T09:19:59.643Z,10.07
2018-02-12T09:24:53.921Z,6.73
2018-02-12T09:29:48.333Z,8.73
2018-02-12T09:34:42.694Z,10.13
2018-02-12T09:39:37.899Z,10.07
2018-02-12T09:44:32.961Z,9.83
2018-02-12T09:49:27.311Z,9.67
2018-02-12T09:54:21.691Z,8.37
2018-02-12T09:59:16.952Z,9.20
2018-02-12T10:04:12.011Z,9.77
2018-02-12T10:09:06.060Z,8.90
2018-02-12T10:14:01.120Z,6.73
2018-02-12T10:18:55.389Z,9.27
2018-02-12T10:23:50.468Z,14.30
2018-02-12T10:28:44.764Z,8.00
2018-02-12T10:33:39.125Z,9.33
2018-02-12T10:38:33.439Z,7.13
2018-02-12T10:43:27.764Z,8.10
2018-02-12T10:48:22.039Z,9.57
2018-02-12T10:53:16.337Z,13.33
2018-02-12T10:58:10.645Z,8.07
2018-02-12T11:03:05.091Z,12.07
2018-02-12T11:07:59.553Z,9.27
2018-02-12T11:12:53.928Z,8.93
2018-02-12T11:17:48.987Z,8.80
2018-02-12T11:22:43.423Z,7.43
2018-02-12T11:27:37.739Z,8.93
2018-02-12T11:32:32.810Z,5.63
2018-02-12T11:37:27.124Z,5.93
2018-02-12T11:42:21.484Z,8.40
2018-02-12T11:47:15.994Z,6.30
2018-02-12T11:52:10.446Z,6.87
2018-02-12T11:57:04.826Z,9.93
2018-02-12T12:01:59.114Z,6.37
2018-02-12T12:06:53.409Z,6.67
2018-02-12T12:11:47.697Z,8.20
2018-02-12T12:16:41.792Z,9.80
2018-02-12T12:21:36.068Z,11.90
2018-02-12T12:26:31.206Z,8.47
2018-02-12T12:31:26.257Z,7.80
2018-02-12T12:36:20.676Z,6.97
2018-02-12T12:41:14.950Z,10.57
2018-02-12T12:46:09.273Z,11.47
2018-02-12T12:51:03.696Z,6.23
2018-02-12T12:55:58.038Z,7.00
2018-02-12T13:00:53.083Z,11.67
2018-02-12T13:05:47.387Z,12.27
2018-02-12T13:10:41.693Z,7.70
2018-02-12T13:15:36.036Z,5.00
2018-02-12T13:20:30.422Z,6.13
2018-02-12T13:25:24.708Z,8.27
2018-02-12T13:30:18.993Z,6.67
2018-02-12T13:35:13.289Z,5.20
2018-02-12T13:40:07.629Z,6.33
2018-02-12T13:45:02.205Z,8.27
2018-02-12T13:49:56.506Z,7.67
2018-02-12T13:54:50.986Z,9.10
2018-02-12T13:59:45.323Z,7.27
2018-02-12T14:04:39.616Z,5.93
2018-02-12T14:09:33.998Z,9.50
2018-02-12T14:14:28.604Z,6.70
2018-02-12T14:19:22.898Z,10.00
2018-02-12T14:24:17.685Z,8.80
2018-02-12T14:29:12.999Z,9.87
2018-02-12T14:34:07.285Z,7.17
2018-02-12T14:39:01.752Z,8.67
2018-02-12T14:43:56.656Z,10.43
2018-02-12T14:48:51.841Z,5.37
2018-02-12T14:53:47.217Z,6.50
2018-02-12T14:58:41.656Z,4.63
2018-02-12T15:03:36.187Z,4.73
2018-02-12T15:08:31.288Z,4.50
2018-02-12T15:13:25.604Z,5.90
2018-02-12T15:18:20.661Z,5.27
2018-02-12T15:23:15.668Z,5.87
2018-02-12T15:28:10.095Z,5.43
2018-02-12T15:33:04.399Z,5.37
2018-02-12T15:37:58.695Z,6.63
2018-02-12T15:42:53.499Z,7.67
2018-02-12T15:47:48.160Z,5.70
2018-02-12T15:52:43.275Z,7.57
2018-02-12T15:57:38.754Z,8.20
2018-02-12T16:02:33.349Z,9.10
2018-02-12T16:07:28.076Z,7.57
2018-02-12T16:12:22.355Z,5.13
2018-02-12T16:17:16.672Z,7.77
2018-02-12T16:22:10.953Z,12.47
2018-02-12T16:27:05.588Z,10.20
2018-02-12T16:32:00.157Z,6.80
2018-02-12T16:36:55.466Z,6.47
2018-02-12T16:41:50.526Z,8.27
2018-02-12T16:46:44.813Z,12.03
2018-02-12T16:51:39.860Z,10.40
2018-02-12T16:56:34.130Z,9.07
2018-02-12T17:01:29.195Z,10.03
2018-02-12T17:06:23.703Z,11.67
2018-02-12T17:11:18.319Z,12.23
2018-02-12T17:16:12.597Z,14.00
2018-02-12T17:21:06.870Z,8.07
2018-02-12T17:26:01.146Z,11.37
2018-02-12T17:30:56.187Z,9.60
2018-02-12T17:35:50.742Z,9.80
2018-02-12T17:40:45.004Z,10.27
2018-02-12T17:45:39.318Z,11.03
2018-02-12T17:50:33.872Z,10.10
2018-02-12T17:55:28.916Z,6.67
2018-02-12T18:00:23.188Z,15.63
2018-02-12T18:05:18.324Z,14.57
2018-02-12T18:10:12.564Z,12.63
2018-02-12T18:15:06.850Z,13.60
2018-02-12T18:20:01.278Z,21.03
2018-02-12T18:24:55.674Z,16.27
2018-02-12T18:29:49.967Z,10.97
2018-02-12T18:34:44.869Z,12.20
2018-02-12T18:39:39.285Z,15.67
2018-02-12T18:44:33.680Z,14.90
2018-02-12T18:49:27.954Z,18.03
2018-02-12T18:54:23.000Z,12.00
2018-02-12T18:59:17.439Z,12.20
2018-02-12T19:04:11.726Z,13.73
2018-02-12T19:09:05.751Z,12.63
2018-02-12T19:14:00.797Z,9.27
2018-02-12T19:18:55.184Z,13.13
2018-02-12T19:23:50.241Z,16.70
2018-02-12T19:28:44.564Z,14.20
2018-02-12T19:33:38.840Z,18.20
2018-02-12T19:38:33.178Z,10.07
2018-02-12T19:43:27.450Z,10.40
2018-02-12T19:48:21.758Z,19.47
2018-02-12T19:53:16.031Z,11.60
2018-02-12T19:58:10.407Z,13.80
2018-02-12T20:03:05.491Z,10.07
2018-02-12T20:07:59.795Z,9.43
2018-02-12T20:12:54.372Z,8.97
2018-02-12T20:17:48.686Z,14.20
2018-02-12T20:22:43.037Z,15.67
2018-02-12T20:27:38.414Z,13.57
2018-02-12T20:32:33.101Z,11.47
2018-02-12T20:37:27.590Z,13.80
2018-02-12T20:42:21.888Z,10.20
2018-02-12T20:47:17.044Z,10.23
2018-02-12T20:52:11.401Z,13.20
2018-02-12T20:57:07.545Z,16.13
2018-02-12T21:02:02.249Z,16.67
2018-02-12T21:06:57.413Z,19.37
2018-02-12T21:11:51.800Z,16.43
2018-02-12T21:16:46.080Z,18.47
2018-02-12T21:21:41.216Z,13.70
2018-02-12T21:26:36.525Z,10.00
2018-02-12T21:31:31.222Z,9.43
2018-02-12T21:36:26.344Z,10.97
2018-02-12T21:41:21.404Z,8.80
2018-02-12T21:46:15.687Z,11.57
2018-02-12T21:51:10.059Z,10.07
2018-02-12T21:56:05.250Z,10.13
2018-02-12T22:00:59.626Z,12.73
2018-02-12T22:05:53.774Z,10.70
2018-02-12T22:10:48.035Z,8.57
2018-02-12T22:15:42.454Z,9.20
2018-02-12T22:20:36.714Z,8.77
2018-02-12T22:25:31.147Z,8.50
2018-02-12T22:30:25.454Z,5.87
2018-02-12T22:35:20.914Z,9.73
2018-02-12T22:40:16.782Z,7.30
2018-02-12T22:45:11.063Z,8.07
2018-02-12T22:50:05.412Z,8.63
2018-02-12T22:54:59.916Z,9.87
2018-02-12T22:59:54.226Z,11.80
2018-02-12T23:04:48.524Z,12.70
2018-02-12T23:09:42.812Z,7.27
2018-02-12T23:14:37.557Z,14.63
2018-02-12T23:19:32.844Z,7.07
2018-02-12T23:24:27.441Z,6.23
2018-02-12T23:29:21.768Z,10.23
2018-02-12T23:34:16.052Z,7.30
2018-02-12T23:39:10.357Z,8.93
2018-02-12T23:44:04.767Z,8.53
2018-02-12T23:48:59.078Z,10.17
2018-02-12T23:53:53.476Z,5.77
2018-02-12T23:58:47.766Z,8.20
